sensor_id;sensor_type;location;lat;lon;timestamp;temperature;humidity
30473;DHT22;17263;48.160;11.452;2023-03-21T00:01:43;7.70;99.90
30473;DHT22;17263;48.160;11.452;2023-03-21T00:04:09;7.80;99.90
30473;DHT22;17263;48.160;11.452;2023-03-21T00:06:35;7.80;99.90
30473;DHT22;17263;48.160;11.452;2023-03-21T00:09:01;7.80;99.90
30473;DHT22;17263;48.160;11.452;2023-03-21T00:11:27;7.80;99.90
30473;DHT22;17263;48.160;11.452;2023-03-21T00:13:53;7.80;99.90
30473;DHT22;17263;48.160;11.452;2023-03-21T00:16:23;7.80;99.90
30473;DHT22;17263;48.160;11.452;2023-03-21T00:18:49;7.80;99.90
30473;DHT22;17263;48.160;11.452;2023-03-21T00:21:19;7.90;99.90
30473;DHT22;17263;48.160;11.452;2023-03-21T00:23:46;7.90;99.90
30473;DHT22;17263;48.160;11.452;2023-03-21T00:26:13;7.90;99.90
30473;DHT22;17263;48.160;11.452;2023-03-21T00:28:41;7.90;99.90
30473;DHT22;17263;48.160;11.452;2023-03-21T00:31:08;8.00;99.90
30473;DHT22;17263;48.160;11.452;2023-03-21T00:33:35;8.00;99.90
30473;DHT22;17263;48.160;11.452;2023-03-21T00:36:04;7.90;99.90
30473;DHT22;17263;48.160;11.452;2023-03-21T00:38:30;7.90;99.90
30473;DHT22;17263;48.160;11.452;2023-03-21T00:40:56;7.90;99.90
30473;DHT22;17263;48.160;11.452;2023-03-21T00:43:22;7.90;99.90
30473;DHT22;17263;48.160;11.452;2023-03-21T00:45:56;7.90;99.90
30473;DHT22;17263;48.160;11.452;2023-03-21T00:48:26;7.90;99.90
30473;DHT22;17263;48.160;11.452;2023-03-21T00:50:54;7.90;99.90
30473;DHT22;17263;48.160;11.452;2023-03-21T00:53:20;7.90;99.90
30473;DHT22;17263;48.160;11.452;2023-03-21T00:55:47;7.90;99.90
30473;DHT22;17263;48.160;11.452;2023-03-21T00:58:13;7.90;99.90
30473;DHT22;17263;48.160;11.452;2023-03-21T01:00:39;7.90;99.90
30473;DHT22;17263;48.160;11.452;2023-03-21T01:03:06;7.90;99.90
30473;DHT22;17263;48.160;11.452;2023-03-21T01:05:37;7.90;99.90
30473;DHT22;17263;48.160;11.452;2023-03-21T01:08:23;7.90;99.90
30473;DHT22;17263;48.160;11.452;2023-03-21T01:10:51;7.90;99.90
30473;DHT22;17263;48.160;11.452;2023-03-21T01:13:19;8.00;99.90
30473;DHT22;17263;48.160;11.452;2023-03-21T01:15:53;8.00;99.90
30473;DHT22;17263;48.160;11.452;2023-03-21T01:18:23;8.00;99.90
30473;DHT22;17263;48.160;11.452;2023-03-21T01:20:53;8.00;99.90
30473;DHT22;17263;48.160;11.452;2023-03-21T01:23:19;8.00;99.90
30473;DHT22;17263;48.160;11.452;2023-03-21T01:25:47;8.00;99.90
30473;DHT22;17263;48.160;11.452;2023-03-21T01:28:14;8.00;99.90
30473;DHT22;17263;48.160;11.452;2023-03-21T01:30:47;8.00;99.90
30473;DHT22;17263;48.160;11.452;2023-03-21T01:33:14;8.00;99.90
30473;DHT22;17263;48.160;11.452;2023-03-21T01:35:41;8.00;99.90
30473;DHT22;17263;48.160;11.452;2023-03-21T01:38:07;8.00;99.90
30473;DHT22;17263;48.160;11.452;2023-03-21T01:40:35;8.00;99.90
30473;DHT22;17263;48.160;11.452;2023-03-21T01:43:03;8.00;99.90
30473;DHT22;17263;48.160;11.452;2023-03-21T01:48:33;8.10;99.90
30473;DHT22;17263;48.160;11.452;2023-03-21T01:51:00;8.10;99.90
30473;DHT22;17263;48.160;11.452;2023-03-21T01:53:28;8.00;99.90
30473;DHT22;17263;48.160;11.452;2023-03-21T01:55:57;8.00;99.90
30473;DHT22;17263;48.160;11.452;2023-03-21T01:58:24;8.00;99.90
30473;DHT22;17263;48.160;11.452;2023-03-21T02:00:51;8.00;99.90
30473;DHT22;17263;48.160;11.452;2023-03-21T02:03:18;8.00;99.90
30473;DHT22;17263;48.160;11.452;2023-03-21T02:08:46;8.00;99.90
30473;DHT22;17263;48.160;11.452;2023-03-21T02:11:14;8.00;99.90
30473;DHT22;17263;48.160;11.452;2023-03-21T02:13:41;8.00;99.90
30473;DHT22;17263;48.160;11.452;2023-03-21T02:16:18;8.00;99.90
30473;DHT22;17263;48.160;11.452;2023-03-21T02:18:57;8.00;99.90
30473;DHT22;17263;48.160;11.452;2023-03-21T02:21:47;8.00;99.90
30473;DHT22;17263;48.160;11.452;2023-03-21T02:27:11;8.00;99.90
30473;DHT22;17263;48.160;11.452;2023-03-21T02:32:47;8.00;99.90
30473;DHT22;17263;48.160;11.452;2023-03-21T02:38:08;8.00;99.90
30473;DHT22;17263;48.160;11.452;2023-03-21T02:40:51;8.00;99.90
30473;DHT22;17263;48.160;11.452;2023-03-21T02:43:31;8.00;99.90
30473;DHT22;17263;48.160;11.452;2023-03-21T02:46:18;8.00;99.90
30473;DHT22;17263;48.160;11.452;2023-03-21T02:49:08;8.00;99.90
30473;DHT22;17263;48.160;11.452;2023-03-21T02:51:38;8.00;99.90
30473;DHT22;17263;48.160;11.452;2023-03-21T02:54:13;8.00;99.90
30473;DHT22;17263;48.160;11.452;2023-03-21T02:56:41;8.00;99.90
30473;DHT22;17263;48.160;11.452;2023-03-21T02:59:08;8.00;99.90
30473;DHT22;17263;48.160;11.452;2023-03-21T03:01:35;8.00;99.90
30473;DHT22;17263;48.160;11.452;2023-03-21T03:04:02;8.00;99.90
30473;DHT22;17263;48.160;11.452;2023-03-21T03:06:48;8.00;99.90
30473;DHT22;17263;48.160;11.452;2023-03-21T03:09:28;8.10;99.90
30473;DHT22;17263;48.160;11.452;2023-03-21T03:12:12;8.00;99.90
30473;DHT22;17263;48.160;11.452;2023-03-21T03:14:47;8.00;99.90
30473;DHT22;17263;48.160;11.452;2023-03-21T03:20:27;8.00;99.90
30473;DHT22;17263;48.160;11.452;2023-03-21T03:23:12;7.90;99.90
30473;DHT22;17263;48.160;11.452;2023-03-21T03:25:46;7.90;99.90
30473;DHT22;17263;48.160;11.452;2023-03-21T03:28:17;7.90;99.90
30473;DHT22;17263;48.160;11.452;2023-03-21T03:30:45;7.90;99.90
30473;DHT22;17263;48.160;11.452;2023-03-21T03:33:12;8.00;99.90
30473;DHT22;17263;48.160;11.452;2023-03-21T03:35:43;7.90;99.90
30473;DHT22;17263;48.160;11.452;2023-03-21T03:38:09;7.90;99.90
30473;DHT22;17263;48.160;11.452;2023-03-21T03:40:40;7.90;99.90
30473;DHT22;17263;48.160;11.452;2023-03-21T03:43:17;7.90;99.90
30473;DHT22;17263;48.160;11.452;2023-03-21T03:45:55;7.90;99.90
30473;DHT22;17263;48.160;11.452;2023-03-21T03:48:27;7.90;99.90
30473;DHT22;17263;48.160;11.452;2023-03-21T03:51:39;8.00;99.90
30473;DHT22;17263;48.160;11.452;2023-03-21T03:54:15;8.00;99.90
30473;DHT22;17263;48.160;11.452;2023-03-21T03:56:44;8.00;99.90
30473;DHT22;17263;48.160;11.452;2023-03-21T03:59:10;8.00;99.90
30473;DHT22;17263;48.160;11.452;2023-03-21T04:01:36;8.00;99.90
30473;DHT22;17263;48.160;11.452;2023-03-21T04:04:03;7.90;99.90
30473;DHT22;17263;48.160;11.452;2023-03-21T04:06:29;7.90;99.90
30473;DHT22;17263;48.160;11.452;2023-03-21T04:08:56;7.90;99.90
30473;DHT22;17263;48.160;11.452;2023-03-21T04:11:23;7.90;99.90
30473;DHT22;17263;48.160;11.452;2023-03-21T04:13:49;7.90;99.90
30473;DHT22;17263;48.160;11.452;2023-03-21T04:16:15;7.90;99.90
30473;DHT22;17263;48.160;11.452;2023-03-21T04:18:41;7.90;99.90
30473;DHT22;17263;48.160;11.452;2023-03-21T04:21:12;7.90;99.90
30473;DHT22;17263;48.160;11.452;2023-03-21T04:23:39;7.90;99.90
30473;DHT22;17263;48.160;11.452;2023-03-21T04:26:06;7.80;99.90
30473;DHT22;17263;48.160;11.452;2023-03-21T04:28:32;7.90;99.90
30473;DHT22;17263;48.160;11.452;2023-03-21T04:30:58;7.90;99.90
30473;DHT22;17263;48.160;11.452;2023-03-21T04:33:25;7.90;99.90
30473;DHT22;17263;48.160;11.452;2023-03-21T04:35:51;7.90;99.90
30473;DHT22;17263;48.160;11.452;2023-03-21T04:38:22;7.90;99.90
30473;DHT22;17263;48.160;11.452;2023-03-21T04:40:48;7.80;99.90
30473;DHT22;17263;48.160;11.452;2023-03-21T04:43:14;7.80;99.90
30473;DHT22;17263;48.160;11.452;2023-03-21T04:45:40;7.80;99.90
30473;DHT22;17263;48.160;11.452;2023-03-21T04:48:06;7.80;99.90
30473;DHT22;17263;48.160;11.452;2023-03-21T04:50:32;7.80;99.90
30473;DHT22;17263;48.160;11.452;2023-03-21T04:52:58;7.80;99.90
30473;DHT22;17263;48.160;11.452;2023-03-21T04:55:25;7.80;99.90
30473;DHT22;17263;48.160;11.452;2023-03-21T04:57:52;7.80;99.90
30473;DHT22;17263;48.160;11.452;2023-03-21T05:00:19;7.80;99.90
30473;DHT22;17263;48.160;11.452;2023-03-21T05:02:45;7.80;99.90
30473;DHT22;17263;48.160;11.452;2023-03-21T05:05:11;7.80;99.90
30473;DHT22;17263;48.160;11.452;2023-03-21T05:07:39;7.70;99.90
30473;DHT22;17263;48.160;11.452;2023-03-21T05:10:07;7.80;99.90
30473;DHT22;17263;48.160;11.452;2023-03-21T05:12:34;7.80;99.90
30473;DHT22;17263;48.160;11.452;2023-03-21T05:15:00;7.70;99.90
30473;DHT22;17263;48.160;11.452;2023-03-21T05:17:26;7.80;99.90
30473;DHT22;17263;48.160;11.452;2023-03-21T05:19:53;7.80;99.90
30473;DHT22;17263;48.160;11.452;2023-03-21T05:22:22;7.80;99.90
30473;DHT22;17263;48.160;11.452;2023-03-21T05:24:49;7.80;99.90
30473;DHT22;17263;48.160;11.452;2023-03-21T05:27:16;7.80;99.90
30473;DHT22;17263;48.160;11.452;2023-03-21T05:30:02;7.80;99.90
30473;DHT22;17263;48.160;11.452;2023-03-21T05:32:28;7.80;99.90
30473;DHT22;17263;48.160;11.452;2023-03-21T05:34:55;7.80;99.90
30473;DHT22;17263;48.160;11.452;2023-03-21T05:37:21;7.80;99.90
30473;DHT22;17263;48.160;11.452;2023-03-21T05:39:47;7.80;99.90
30473;DHT22;17263;48.160;11.452;2023-03-21T05:42:13;7.90;99.90
30473;DHT22;17263;48.160;11.452;2023-03-21T05:44:39;7.90;99.90
30473;DHT22;17263;48.160;11.452;2023-03-21T05:47:06;7.90;99.90
30473;DHT22;17263;48.160;11.452;2023-03-21T05:49:32;7.90;99.90
30473;DHT22;17263;48.160;11.452;2023-03-21T05:51:58;7.90;99.90
30473;DHT22;17263;48.160;11.452;2023-03-21T05:54:24;8.00;99.90
30473;DHT22;17263;48.160;11.452;2023-03-21T05:56:50;8.00;99.90
30473;DHT22;17263;48.160;11.452;2023-03-21T05:59:16;8.00;99.90
30473;DHT22;17263;48.160;11.452;2023-03-21T06:01:42;8.00;99.90
30473;DHT22;17263;48.160;11.452;2023-03-21T06:04:08;8.10;99.90
30473;DHT22;17263;48.160;11.452;2023-03-21T06:06:34;8.10;99.90
30473;DHT22;17263;48.160;11.452;2023-03-21T06:09:00;8.20;99.90
30473;DHT22;17263;48.160;11.452;2023-03-21T06:11:32;8.20;99.90
30473;DHT22;17263;48.160;11.452;2023-03-21T06:13:59;8.20;99.90
30473;DHT22;17263;48.160;11.452;2023-03-21T06:16:25;8.20;99.90
30473;DHT22;17263;48.160;11.452;2023-03-21T06:18:51;8.30;99.90
30473;DHT22;17263;48.160;11.452;2023-03-21T06:21:17;8.30;99.90
30473;DHT22;17263;48.160;11.452;2023-03-21T06:23:43;8.30;99.90
30473;DHT22;17263;48.160;11.452;2023-03-21T06:26:09;8.40;99.90
30473;DHT22;17263;48.160;11.452;2023-03-21T06:28:35;8.40;99.90
30473;DHT22;17263;48.160;11.452;2023-03-21T06:31:01;8.40;99.90
30473;DHT22;17263;48.160;11.452;2023-03-21T06:33:27;8.50;99.90
30473;DHT22;17263;48.160;11.452;2023-03-21T06:35:55;8.50;99.90
30473;DHT22;17263;48.160;11.452;2023-03-21T06:38:22;8.50;99.90
30473;DHT22;17263;48.160;11.452;2023-03-21T06:40:49;8.50;99.90
30473;DHT22;17263;48.160;11.452;2023-03-21T06:43:15;8.50;99.90
30473;DHT22;17263;48.160;11.452;2023-03-21T06:45:42;8.60;99.90
30473;DHT22;17263;48.160;11.452;2023-03-21T06:48:08;8.70;99.90
30473;DHT22;17263;48.160;11.452;2023-03-21T06:50:34;8.70;99.90
30473;DHT22;17263;48.160;11.452;2023-03-21T06:53:01;8.80;99.90
30473;DHT22;17263;48.160;11.452;2023-03-21T06:55:27;8.90;99.90
30473;DHT22;17263;48.160;11.452;2023-03-21T06:57:55;8.90;99.90
30473;DHT22;17263;48.160;11.452;2023-03-21T07:00:22;9.00;99.90
30473;DHT22;17263;48.160;11.452;2023-03-21T07:02:48;9.00;99.90
30473;DHT22;17263;48.160;11.452;2023-03-21T07:05:15;9.00;99.90
30473;DHT22;17263;48.160;11.452;2023-03-21T07:07:42;9.00;99.90
30473;DHT22;17263;48.160;11.452;2023-03-21T07:10:08;9.10;99.90
30473;DHT22;17263;48.160;11.452;2023-03-21T07:12:34;9.20;99.90
30473;DHT22;17263;48.160;11.452;2023-03-21T07:15:02;9.20;99.90
30473;DHT22;17263;48.160;11.452;2023-03-21T07:17:29;9.20;99.90
30473;DHT22;17263;48.160;11.452;2023-03-21T07:19:55;9.30;99.90
30473;DHT22;17263;48.160;11.452;2023-03-21T07:22:21;9.30;99.90
30473;DHT22;17263;48.160;11.452;2023-03-21T07:24:47;9.40;99.90
30473;DHT22;17263;48.160;11.452;2023-03-21T07:27:17;9.50;99.90
30473;DHT22;17263;48.160;11.452;2023-03-21T07:29:43;9.50;99.90
30473;DHT22;17263;48.160;11.452;2023-03-21T07:32:12;9.60;99.90
30473;DHT22;17263;48.160;11.452;2023-03-21T07:34:38;9.60;99.90
30473;DHT22;17263;48.160;11.452;2023-03-21T07:37:04;9.70;99.90
30473;DHT22;17263;48.160;11.452;2023-03-21T07:39:32;9.70;99.90
30473;DHT22;17263;48.160;11.452;2023-03-21T07:41:59;9.70;99.90
30473;DHT22;17263;48.160;11.452;2023-03-21T07:44:26;9.80;99.90
30473;DHT22;17263;48.160;11.452;2023-03-21T07:46:52;9.90;99.90
30473;DHT22;17263;48.160;11.452;2023-03-21T07:49:18;9.90;99.90
30473;DHT22;17263;48.160;11.452;2023-03-21T07:51:44;10.00;99.90
30473;DHT22;17263;48.160;11.452;2023-03-21T07:54:10;10.00;99.90
30473;DHT22;17263;48.160;11.452;2023-03-21T07:56:36;10.00;99.90
30473;DHT22;17263;48.160;11.452;2023-03-21T07:59:02;10.10;99.90
30473;DHT22;17263;48.160;11.452;2023-03-21T08:01:30;10.10;99.90
30473;DHT22;17263;48.160;11.452;2023-03-21T08:03:56;10.20;99.90
30473;DHT22;17263;48.160;11.452;2023-03-21T08:06:22;10.30;99.90
30473;DHT22;17263;48.160;11.452;2023-03-21T08:08:51;10.30;99.90
30473;DHT22;17263;48.160;11.452;2023-03-21T08:11:17;10.40;99.90
30473;DHT22;17263;48.160;11.452;2023-03-21T08:13:46;10.50;99.90
30473;DHT22;17263;48.160;11.452;2023-03-21T08:16:12;10.60;99.90
30473;DHT22;17263;48.160;11.452;2023-03-21T08:18:38;10.60;99.90
30473;DHT22;17263;48.160;11.452;2023-03-21T08:21:04;10.70;99.90
30473;DHT22;17263;48.160;11.452;2023-03-21T08:23:30;10.80;99.90
30473;DHT22;17263;48.160;11.452;2023-03-21T08:25:56;10.80;99.90
30473;DHT22;17263;48.160;11.452;2023-03-21T08:28:23;10.90;99.90
30473;DHT22;17263;48.160;11.452;2023-03-21T08:30:49;10.90;99.90
30473;DHT22;17263;48.160;11.452;2023-03-21T08:33:16;11.00;99.90
30473;DHT22;17263;48.160;11.452;2023-03-21T08:35:43;11.10;99.90
30473;DHT22;17263;48.160;11.452;2023-03-21T08:38:10;11.20;99.90
30473;DHT22;17263;48.160;11.452;2023-03-21T08:40:36;11.30;99.90
30473;DHT22;17263;48.160;11.452;2023-03-21T08:43:02;11.30;99.90
30473;DHT22;17263;48.160;11.452;2023-03-21T08:45:28;11.30;99.90
30473;DHT22;17263;48.160;11.452;2023-03-21T08:47:54;11.40;99.90
30473;DHT22;17263;48.160;11.452;2023-03-21T08:50:24;11.50;99.90
30473;DHT22;17263;48.160;11.452;2023-03-21T08:52:51;11.50;99.90
30473;DHT22;17263;48.160;11.452;2023-03-21T08:55:18;11.70;99.90
30473;DHT22;17263;48.160;11.452;2023-03-21T08:57:44;11.70;99.90
30473;DHT22;17263;48.160;11.452;2023-03-21T09:00:13;11.80;99.90
30473;DHT22;17263;48.160;11.452;2023-03-21T09:02:47;11.80;99.90
30473;DHT22;17263;48.160;11.452;2023-03-21T09:05:13;11.90;99.90
30473;DHT22;17263;48.160;11.452;2023-03-21T09:07:41;11.90;99.90
30473;DHT22;17263;48.160;11.452;2023-03-21T09:10:13;11.90;99.90
30473;DHT22;17263;48.160;11.452;2023-03-21T09:12:39;12.00;99.90
30473;DHT22;17263;48.160;11.452;2023-03-21T09:15:07;12.10;99.90
30473;DHT22;17263;48.160;11.452;2023-03-21T09:17:33;12.20;99.90
30473;DHT22;17263;48.160;11.452;2023-03-21T09:20:01;12.30;99.90
30473;DHT22;17263;48.160;11.452;2023-03-21T09:22:37;12.20;99.90
30473;DHT22;17263;48.160;11.452;2023-03-21T09:25:04;12.30;99.90
30473;DHT22;17263;48.160;11.452;2023-03-21T09:27:33;12.50;99.90
30473;DHT22;17263;48.160;11.452;2023-03-21T09:29:59;12.50;99.90
30473;DHT22;17263;48.160;11.452;2023-03-21T09:32:25;12.60;99.90
30473;DHT22;17263;48.160;11.452;2023-03-21T09:34:53;12.70;99.90
30473;DHT22;17263;48.160;11.452;2023-03-21T09:37:20;12.80;99.90
30473;DHT22;17263;48.160;11.452;2023-03-21T09:39:47;12.80;99.90
30473;DHT22;17263;48.160;11.452;2023-03-21T09:43:01;12.90;99.90
30473;DHT22;17263;48.160;11.452;2023-03-21T09:45:22;12.90;99.90
30473;DHT22;17263;48.160;11.452;2023-03-21T09:47:52;13.00;99.90
30473;DHT22;17263;48.160;11.452;2023-03-21T09:50:28;13.00;99.90
30473;DHT22;17263;48.160;11.452;2023-03-21T09:53:07;13.00;99.90
30473;DHT22;17263;48.160;11.452;2023-03-21T09:55:37;13.00;99.90
30473;DHT22;17263;48.160;11.452;2023-03-21T10:00:44;13.20;99.90
30473;DHT22;17263;48.160;11.452;2023-03-21T10:03:23;13.30;99.90
30473;DHT22;17263;48.160;11.452;2023-03-21T10:05:53;13.40;99.90
30473;DHT22;17263;48.160;11.452;2023-03-21T10:08:36;13.40;99.90
30473;DHT22;17263;48.160;11.452;2023-03-21T10:11:14;13.50;99.90
30473;DHT22;17263;48.160;11.452;2023-03-21T10:13:48;13.60;99.90
30473;DHT22;17263;48.160;11.452;2023-03-21T10:16:30;13.60;99.90
30473;DHT22;17263;48.160;11.452;2023-03-21T10:18:59;13.80;99.90
30473;DHT22;17263;48.160;11.452;2023-03-21T10:21:27;14.00;99.90
30473;DHT22;17263;48.160;11.452;2023-03-21T10:23:55;14.20;99.90
30473;DHT22;17263;48.160;11.452;2023-03-21T10:26:25;14.40;99.90
30473;DHT22;17263;48.160;11.452;2023-03-21T10:28:54;14.40;99.90
30473;DHT22;17263;48.160;11.452;2023-03-21T10:31:24;14.50;99.90
30473;DHT22;17263;48.160;11.452;2023-03-21T10:33:56;14.70;99.90
30473;DHT22;17263;48.160;11.452;2023-03-21T10:36:29;14.80;99.90
30473;DHT22;17263;48.160;11.452;2023-03-21T10:39:05;14.90;99.90
30473;DHT22;17263;48.160;11.452;2023-03-21T10:41:32;14.90;99.90
30473;DHT22;17263;48.160;11.452;2023-03-21T10:46:33;14.80;99.90
30473;DHT22;17263;48.160;11.452;2023-03-21T10:49:00;14.80;99.90
30473;DHT22;17263;48.160;11.452;2023-03-21T10:51:30;14.80;99.90
30473;DHT22;17263;48.160;11.452;2023-03-21T10:54:00;14.80;99.90
30473;DHT22;17263;48.160;11.452;2023-03-21T10:56:30;14.80;99.90
30473;DHT22;17263;48.160;11.452;2023-03-21T10:58:59;14.90;99.90
30473;DHT22;17263;48.160;11.452;2023-03-21T11:04:00;14.90;99.90
30473;DHT22;17263;48.160;11.452;2023-03-21T11:06:31;15.00;99.90
30473;DHT22;17263;48.160;11.452;2023-03-21T11:11:38;14.90;99.90
30473;DHT22;17263;48.160;11.452;2023-03-21T11:14:11;14.90;99.90
30473;DHT22;17263;48.160;11.452;2023-03-21T11:16:44;14.90;99.90
30473;DHT22;17263;48.160;11.452;2023-03-21T11:19:17;14.80;99.90
30473;DHT22;17263;48.160;11.452;2023-03-21T11:21:44;14.90;99.90
30473;DHT22;17263;48.160;11.452;2023-03-21T11:24:14;14.80;99.90
30473;DHT22;17263;48.160;11.452;2023-03-21T11:26:43;14.80;99.90
30473;DHT22;17263;48.160;11.452;2023-03-21T11:29:33;14.80;99.90
30473;DHT22;17263;48.160;11.452;2023-03-21T11:32:11;15.00;99.90
30473;DHT22;17263;48.160;11.452;2023-03-21T11:34:45;15.00;99.90
30473;DHT22;17263;48.160;11.452;2023-03-21T11:37:30;15.00;99.90
30473;DHT22;17263;48.160;11.452;2023-03-21T11:40:12;14.80;99.90
30473;DHT22;17263;48.160;11.452;2023-03-21T11:42:45;14.90;99.90
30473;DHT22;17263;48.160;11.452;2023-03-21T11:45:24;14.80;99.90
30473;DHT22;17263;48.160;11.452;2023-03-21T11:47:54;14.70;99.90
30473;DHT22;17263;48.160;11.452;2023-03-21T11:50:34;14.60;99.90
30473;DHT22;17263;48.160;11.452;2023-03-21T11:56:38;14.50;99.90
30473;DHT22;17263;48.160;11.452;2023-03-21T12:04:12;14.60;99.90
30473;DHT22;17263;48.160;11.452;2023-03-21T12:06:47;14.60;99.90
30473;DHT22;17263;48.160;11.452;2023-03-21T12:09:33;14.60;99.90
30473;DHT22;17263;48.160;11.452;2023-03-21T12:14:58;14.60;99.90
30473;DHT22;17263;48.160;11.452;2023-03-21T12:17:36;14.70;99.90
30473;DHT22;17263;48.160;11.452;2023-03-21T12:20:11;14.70;99.90
30473;DHT22;17263;48.160;11.452;2023-03-21T12:25:28;14.60;99.90
30473;DHT22;17263;48.160;11.452;2023-03-21T12:31:12;14.60;99.90
30473;DHT22;17263;48.160;11.452;2023-03-21T12:39:49;14.80;99.90
30473;DHT22;17263;48.160;11.452;2023-03-21T12:42:36;14.80;99.90
30473;DHT22;17263;48.160;11.452;2023-03-21T12:45:10;14.90;99.90
30473;DHT22;17263;48.160;11.452;2023-03-21T12:47:40;14.90;99.90
30473;DHT22;17263;48.160;11.452;2023-03-21T12:50:17;15.00;99.90
30473;DHT22;17263;48.160;11.452;2023-03-21T12:52:47;15.20;99.90
30473;DHT22;17263;48.160;11.452;2023-03-21T12:55:21;15.40;99.90
30473;DHT22;17263;48.160;11.452;2023-03-21T12:57:48;15.50;99.90
30473;DHT22;17263;48.160;11.452;2023-03-21T13:03:11;15.50;99.90
30473;DHT22;17263;48.160;11.452;2023-03-21T13:05:47;15.60;99.90
30473;DHT22;17263;48.160;11.452;2023-03-21T13:08:17;15.80;98.90
30473;DHT22;17263;48.160;11.452;2023-03-21T13:10:46;15.90;98.90
30473;DHT22;17263;48.160;11.452;2023-03-21T13:13:33;16.00;97.90
30473;DHT22;17263;48.160;11.452;2023-03-21T13:18:43;15.80;96.80
30473;DHT22;17263;48.160;11.452;2023-03-21T13:21:14;15.80;97.30
30473;DHT22;17263;48.160;11.452;2023-03-21T13:23:59;15.90;97.50
30473;DHT22;17263;48.160;11.452;2023-03-21T13:26:36;15.90;97.40
30473;DHT22;17263;48.160;11.452;2023-03-21T13:29:12;16.00;96.50
30473;DHT22;17263;48.160;11.452;2023-03-21T13:31:44;16.10;95.70
30473;DHT22;17263;48.160;11.452;2023-03-21T13:34:12;16.20;96.00
30473;DHT22;17263;48.160;11.452;2023-03-21T13:36:39;16.30;95.90
30473;DHT22;17263;48.160;11.452;2023-03-21T13:39:17;16.30;96.00
30473;DHT22;17263;48.160;11.452;2023-03-21T13:41:44;16.30;95.60
30473;DHT22;17263;48.160;11.452;2023-03-21T13:44:21;16.40;95.00
30473;DHT22;17263;48.160;11.452;2023-03-21T13:47:03;16.50;94.40
30473;DHT22;17263;48.160;11.452;2023-03-21T13:49:36;16.40;94.00
30473;DHT22;17263;48.160;11.452;2023-03-21T13:54:53;16.30;94.10
30473;DHT22;17263;48.160;11.452;2023-03-21T14:00:26;16.30;94.40
30473;DHT22;17263;48.160;11.452;2023-03-21T14:03:00;16.20;95.20
30473;DHT22;17263;48.160;11.452;2023-03-21T14:05:30;16.20;95.90
30473;DHT22;17263;48.160;11.452;2023-03-21T14:08:02;16.10;96.00
30473;DHT22;17263;48.160;11.452;2023-03-21T14:10:53;16.10;95.90
30473;DHT22;17263;48.160;11.452;2023-03-21T14:13:24;16.20;95.30
30473;DHT22;17263;48.160;11.452;2023-03-21T14:16:00;16.10;95.60
30473;DHT22;17263;48.160;11.452;2023-03-21T14:18:29;16.00;96.00
30473;DHT22;17263;48.160;11.452;2023-03-21T14:20:57;16.10;95.60
30473;DHT22;17263;48.160;11.452;2023-03-21T14:23:24;16.20;95.40
30473;DHT22;17263;48.160;11.452;2023-03-21T14:25:51;16.10;94.90
30473;DHT22;17263;48.160;11.452;2023-03-21T14:28:19;16.00;95.10
30473;DHT22;17263;48.160;11.452;2023-03-21T14:30:51;16.00;95.00
30473;DHT22;17263;48.160;11.452;2023-03-21T14:33:31;15.90;95.10
30473;DHT22;17263;48.160;11.452;2023-03-21T14:36:03;15.80;95.20
30473;DHT22;17263;48.160;11.452;2023-03-21T14:38:35;15.90;95.30
30473;DHT22;17263;48.160;11.452;2023-03-21T14:41:02;15.80;95.40
30473;DHT22;17263;48.160;11.452;2023-03-21T14:43:29;15.60;95.90
30473;DHT22;17263;48.160;11.452;2023-03-21T14:45:59;15.50;96.50
30473;DHT22;17263;48.160;11.452;2023-03-21T14:48:30;15.40;96.80
30473;DHT22;17263;48.160;11.452;2023-03-21T14:51:01;15.30;97.00
30473;DHT22;17263;48.160;11.452;2023-03-21T14:53:31;15.40;97.50
30473;DHT22;17263;48.160;11.452;2023-03-21T14:58:28;15.20;97.40
30473;DHT22;17263;48.160;11.452;2023-03-21T15:01:00;15.20;97.40
30473;DHT22;17263;48.160;11.452;2023-03-21T15:03:26;15.20;98.00
30473;DHT22;17263;48.160;11.452;2023-03-21T15:05:54;15.10;98.40
30473;DHT22;17263;48.160;11.452;2023-03-21T15:08:25;15.00;98.60
30473;DHT22;17263;48.160;11.452;2023-03-21T15:11:01;14.90;98.80
30473;DHT22;17263;48.160;11.452;2023-03-21T15:13:30;14.90;99.10
30473;DHT22;17263;48.160;11.452;2023-03-21T15:15:58;14.80;99.30
30473;DHT22;17263;48.160;11.452;2023-03-21T15:18:30;14.80;99.50
30473;DHT22;17263;48.160;11.452;2023-03-21T15:21:02;14.80;99.90
30473;DHT22;17263;48.160;11.452;2023-03-21T15:23:41;14.80;99.90
30473;DHT22;17263;48.160;11.452;2023-03-21T15:26:14;14.80;99.90
30473;DHT22;17263;48.160;11.452;2023-03-21T15:28:44;14.70;99.90
30473;DHT22;17263;48.160;11.452;2023-03-21T15:31:17;14.70;99.90
30473;DHT22;17263;48.160;11.452;2023-03-21T15:33:51;14.80;99.90
30473;DHT22;17263;48.160;11.452;2023-03-21T15:36:20;14.80;99.90
30473;DHT22;17263;48.160;11.452;2023-03-21T15:38:47;14.80;99.90
30473;DHT22;17263;48.160;11.452;2023-03-21T15:43:41;14.80;99.90
30473;DHT22;17263;48.160;11.452;2023-03-21T15:46:15;14.70;99.90
30473;DHT22;17263;48.160;11.452;2023-03-21T15:48:42;14.70;99.90
30473;DHT22;17263;48.160;11.452;2023-03-21T15:51:21;14.70;99.90
30473;DHT22;17263;48.160;11.452;2023-03-21T15:53:50;14.60;99.90
30473;DHT22;17263;48.160;11.452;2023-03-21T15:56:21;14.60;99.90
30473;DHT22;17263;48.160;11.452;2023-03-21T15:58:50;14.60;99.90
30473;DHT22;17263;48.160;11.452;2023-03-21T16:01:18;14.60;99.90
30473;DHT22;17263;48.160;11.452;2023-03-21T16:03:48;14.60;99.90
30473;DHT22;17263;48.160;11.452;2023-03-21T16:06:21;14.50;99.90
30473;DHT22;17263;48.160;11.452;2023-03-21T16:08:53;14.50;99.90
30473;DHT22;17263;48.160;11.452;2023-03-21T16:11:37;14.40;99.90
30473;DHT22;17263;48.160;11.452;2023-03-21T16:14:03;14.40;99.90
30473;DHT22;17263;48.160;11.452;2023-03-21T16:16:29;14.40;99.90
30473;DHT22;17263;48.160;11.452;2023-03-21T16:18:57;14.30;99.90
30473;DHT22;17263;48.160;11.452;2023-03-21T16:21:26;14.30;99.90
30473;DHT22;17263;48.160;11.452;2023-03-21T16:23:54;14.20;99.90
30473;DHT22;17263;48.160;11.452;2023-03-21T16:26:32;14.10;99.90
30473;DHT22;17263;48.160;11.452;2023-03-21T16:28:58;14.00;99.90
30473;DHT22;17263;48.160;11.452;2023-03-21T16:31:30;14.00;99.90
30473;DHT22;17263;48.160;11.452;2023-03-21T16:33:56;14.00;99.90
30473;DHT22;17263;48.160;11.452;2023-03-21T16:36:33;13.90;99.90
30473;DHT22;17263;48.160;11.452;2023-03-21T16:39:14;13.90;99.90
30473;DHT22;17263;48.160;11.452;2023-03-21T16:41:41;13.90;99.90
30473;DHT22;17263;48.160;11.452;2023-03-21T16:44:07;13.90;99.90
30473;DHT22;17263;48.160;11.452;2023-03-21T16:46:33;13.80;99.90
30473;DHT22;17263;48.160;11.452;2023-03-21T16:48:59;13.80;99.90